createdAt,value
2023-04-12T00:01:33.262Z,2.70
2023-04-12T00:04:05.683Z,2.30
2023-04-12T00:06:33.804Z,2.42
2023-04-12T00:09:01.861Z,2.72
2023-04-12T00:11:30.009Z,2.30
2023-04-12T00:13:57.924Z,3.00
2023-04-12T00:16:26.071Z,2.45
2023-04-12T00:18:54.284Z,2.55
2023-04-12T00:21:23.981Z,2.55
2023-04-12T00:23:51.786Z,2.65
2023-04-12T00:26:20.848Z,1.90
2023-04-12T00:28:49.045Z,1.98
2023-04-12T00:31:16.861Z,2.20
2023-04-12T00:33:44.636Z,2.13
2023-04-12T00:36:12.662Z,2.35
2023-04-12T00:38:42.330Z,1.92
2023-04-12T00:41:10.080Z,2.25
2023-04-12T00:43:37.832Z,2.03
2023-04-12T00:46:05.986Z,1.50
2023-04-12T00:48:33.989Z,1.80
2023-04-12T00:51:03.981Z,2.10
2023-04-12T00:53:32.310Z,1.60
2023-04-12T00:56:01.708Z,1.92
2023-04-12T00:58:29.457Z,1.65
2023-04-12T01:00:57.457Z,1.50
2023-04-12T01:03:27.849Z,1.48
2023-04-12T01:06:10.585Z,1.52
2023-04-12T01:08:48.797Z,1.52
2023-04-12T01:11:21.650Z,2.38
2023-04-12T01:13:55.412Z,1.33
2023-04-12T01:16:29.841Z,1.50
2023-04-12T01:19:03.742Z,1.10
2023-04-12T01:24:29.058Z,1.27
2023-04-12T01:27:00.721Z,1.10
2023-04-12T01:29:32.302Z,1.10
2023-04-12T01:32:02.417Z,1.08
2023-04-12T01:34:33.410Z,1.20
2023-04-12T01:37:04.147Z,1.23
2023-04-12T01:39:34.804Z,1.25
2023-04-12T01:42:02.785Z,1.20
2023-04-12T01:44:31.956Z,1.27
2023-04-12T01:47:00.365Z,2.08
2023-04-12T01:49:36.506Z,1.13
2023-04-12T01:52:10.687Z,1.42
2023-04-12T01:54:42.835Z,1.70
2023-04-12T01:57:11.956Z,1.15
2023-04-12T01:59:42.780Z,1.58
2023-04-12T02:02:11.898Z,1.55
2023-04-12T02:04:39.991Z,1.75
2023-04-12T02:07:07.767Z,1.40
2023-04-12T02:09:38.687Z,1.23
2023-04-12T02:12:07.411Z,1.67
2023-04-12T02:14:35.819Z,1.88
2023-04-12T02:17:05.661Z,1.63
2023-04-12T02:19:33.452Z,1.60
2023-04-12T02:22:02.213Z,1.98
2023-04-12T02:24:30.078Z,1.67
2023-04-12T02:26:59.503Z,1.42
2023-04-12T02:29:27.394Z,1.73
2023-04-12T02:31:55.232Z,1.73
2023-04-12T02:34:24.469Z,1.75
2023-04-12T02:36:52.454Z,2.45
2023-04-12T02:39:22.004Z,1.48
2023-04-12T02:41:49.762Z,1.67
2023-04-12T02:44:17.491Z,1.52
2023-04-12T02:46:45.458Z,1.90
2023-04-12T02:49:13.178Z,1.52
2023-04-12T02:51:42.586Z,1.60
2023-04-12T02:54:10.319Z,1.70
2023-04-12T02:56:38.020Z,3.33
2023-04-12T02:59:06.869Z,3.13
2023-04-12T03:01:34.768Z,1.48
2023-04-12T03:04:02.991Z,1.35
2023-04-12T03:06:32.072Z,1.23
2023-04-12T03:09:01.202Z,1.40
2023-04-12T03:11:28.928Z,1.40
2023-04-12T03:13:56.858Z,1.50
2023-04-12T03:16:30.111Z,1.80
2023-04-12T03:18:58.039Z,2.10
2023-04-12T03:21:26.015Z,1.88
2023-04-12T03:23:53.770Z,2.33
2023-04-12T03:26:22.935Z,1.55
2023-04-12T03:28:50.884Z,2.05
2023-04-12T03:31:21.024Z,1.40
2023-04-12T03:33:49.014Z,1.60
2023-04-12T03:36:16.848Z,1.50
2023-04-12T03:38:45.267Z,1.40
2023-04-12T03:41:13.123Z,1.45
2023-04-12T03:43:42.678Z,1.50
2023-04-12T03:46:10.927Z,1.60
2023-04-12T03:48:38.894Z,1.35
2023-04-12T03:51:08.666Z,1.42
2023-04-12T03:53:36.992Z,1.50
2023-04-12T03:56:04.844Z,1.48
2023-04-12T03:58:34.030Z,1.83
2023-04-12T04:01:03.853Z,1.40
2023-04-12T04:03:35.039Z,1.92
2023-04-12T04:06:03.473Z,1.70
2023-04-12T04:08:32.582Z,1.98
2023-04-12T04:11:00.663Z,1.38
2023-04-12T04:13:28.373Z,1.15
2023-04-12T04:16:04.473Z,1.20
2023-04-12T04:18:35.900Z,1.48
2023-04-12T04:21:03.748Z,3.15
2023-04-12T04:23:38.902Z,2.90
2023-04-12T04:26:10.524Z,1.65
2023-04-12T04:28:38.754Z,1.63
2023-04-12T04:31:07.340Z,1.48
2023-04-12T04:33:36.661Z,1.60
2023-04-12T04:36:05.512Z,1.67
2023-04-12T04:38:33.774Z,1.88
2023-04-12T04:41:02.454Z,2.15
2023-04-12T04:43:30.811Z,1.70
2023-04-12T04:45:59.119Z,1.67
2023-04-12T04:48:26.926Z,1.45
2023-04-12T04:50:56.014Z,1.90
2023-04-12T04:53:23.988Z,1.60
2023-04-12T04:55:58.764Z,1.80
2023-04-12T04:58:26.593Z,1.63
2023-04-12T05:00:57.602Z,11.10
2023-04-12T05:03:30.291Z,2.38
2023-04-12T05:06:00.060Z,1.80
2023-04-12T05:08:28.721Z,1.80
2023-04-12T05:10:57.939Z,1.67
2023-04-12T05:13:25.777Z,1.83
2023-04-12T05:15:53.516Z,1.60
2023-04-12T05:18:21.332Z,3.20
2023-04-12T05:20:49.336Z,3.15
2023-04-12T05:23:18.515Z,2.42
2023-04-12T05:25:48.308Z,2.45
2023-04-12T05:28:17.574Z,1.95
2023-04-12T05:30:46.430Z,2.25
2023-04-12T05:33:14.245Z,5.57
2023-04-12T05:35:42.097Z,3.83
2023-04-12T05:38:10.029Z,4.97
2023-04-12T05:40:39.152Z,3.42
2023-04-12T05:43:06.859Z,4.25
2023-04-12T05:45:34.582Z,3.83
2023-04-12T05:48:02.723Z,4.75
2023-04-12T05:50:30.522Z,3.70
2023-04-12T05:52:58.294Z,3.97
2023-04-12T05:55:26.127Z,3.65
2023-04-12T05:57:55.413Z,4.38
2023-04-12T06:00:23.555Z,5.35
2023-04-12T06:02:52.313Z,4.00
2023-04-12T06:05:20.662Z,4.20
2023-04-12T06:07:49.075Z,4.43
2023-04-12T06:10:18.388Z,5.88
2023-04-12T06:12:46.148Z,4.15
2023-04-12T06:15:15.531Z,4.45
2023-04-12T06:17:43.644Z,4.45
2023-04-12T06:20:12.785Z,4.93
2023-04-12T06:22:40.497Z,4.75
2023-04-12T06:25:09.386Z,3.65
2023-04-12T06:27:37.213Z,3.40
2023-04-12T06:30:05.805Z,4.57
2023-04-12T06:32:34.942Z,4.00
2023-04-12T06:35:02.766Z,3.50
2023-04-12T06:37:30.511Z,5.50
2023-04-12T06:39:58.308Z,3.38
2023-04-12T06:42:26.184Z,3.15
2023-04-12T06:44:53.932Z,3.25
2023-04-12T06:47:22.793Z,3.95
2023-04-12T06:49:56.109Z,4.05
2023-04-12T06:52:25.517Z,3.45
2023-04-12T06:54:53.342Z,5.50
2023-04-12T06:57:21.130Z,4.60
2023-04-12T06:59:48.979Z,3.53
2023-04-12T07:02:16.758Z,3.97
2023-04-12T07:04:44.576Z,3.80
2023-04-12T07:07:13.683Z,4.70
2023-04-12T07:09:41.496Z,4.82
2023-04-12T07:12:09.258Z,6.45
2023-04-12T07:14:37.634Z,3.63
2023-04-12T07:17:05.801Z,6.03
2023-04-12T07:19:33.544Z,4.38
2023-04-12T07:22:01.346Z,5.25
2023-04-12T07:24:30.501Z,4.80
2023-04-12T07:26:58.476Z,4.47
2023-04-12T07:29:29.527Z,3.67
2023-04-12T07:31:57.305Z,4.20
2023-04-12T07:34:25.468Z,3.38
2023-04-12T07:36:53.214Z,4.82
2023-04-12T07:39:21.119Z,4.07
2023-04-12T07:41:50.968Z,3.70
2023-04-12T07:44:18.767Z,5.95
2023-04-12T07:46:46.558Z,4.88
2023-04-12T07:49:14.838Z,6.60
2023-04-12T07:51:43.337Z,7.20
2023-04-12T07:54:11.272Z,3.97
2023-04-12T07:56:39.001Z,3.65
2023-04-12T07:59:08.125Z,4.18
2023-04-12T08:01:36.447Z,4.38
2023-04-12T08:04:04.422Z,5.15
2023-04-12T08:06:34.476Z,3.97
2023-04-12T08:09:02.398Z,4.13
2023-04-12T08:11:30.320Z,3.60
2023-04-12T08:13:58.232Z,6.22
2023-04-12T08:16:27.685Z,4.38
2023-04-12T08:18:55.616Z,4.25
2023-04-12T08:21:23.399Z,4.32
2023-04-12T08:23:51.803Z,4.13
2023-04-12T08:26:19.576Z,4.97
2023-04-12T08:28:47.399Z,3.70
2023-04-12T08:31:15.714Z,3.13
2023-04-12T08:33:44.864Z,3.53
2023-04-12T08:36:12.767Z,3.40
2023-04-12T08:38:45.517Z,3.40
2023-04-12T08:41:15.038Z,4.78
2023-04-12T08:43:46.248Z,3.83
2023-04-12T08:46:16.491Z,5.05
2023-04-12T08:48:48.018Z,3.53
2023-04-12T08:51:17.298Z,3.50
2023-04-12T08:53:45.508Z,3.95
2023-04-12T08:56:14.703Z,5.65
2023-04-12T08:58:46.628Z,4.88
2023-04-12T09:01:15.869Z,4.80
2023-04-12T09:03:44.519Z,4.38
2023-04-12T09:06:14.402Z,4.15
2023-04-12T09:08:53.591Z,3.63
2023-04-12T09:11:26.106Z,3.08
2023-04-12T09:13:55.184Z,3.95
2023-04-12T09:16:37.121Z,5.20
2023-04-12T09:19:05.138Z,4.68
2023-04-12T09:21:35.752Z,5.22
2023-04-12T09:24:06.125Z,4.25
2023-04-12T09:26:34.053Z,5.63
2023-04-12T09:29:02.010Z,4.95
2023-04-12T09:31:29.888Z,3.95
2023-04-12T09:34:08.458Z,4.90
2023-04-12T09:36:41.258Z,5.20
2023-04-12T09:39:09.426Z,4.47
2023-04-12T09:41:37.301Z,4.40
2023-04-12T09:44:05.234Z,4.32
2023-04-12T09:46:33.484Z,4.72
2023-04-12T09:49:03.333Z,4.47
2023-04-12T09:51:33.191Z,4.18
2023-04-12T09:54:04.371Z,4.25
2023-04-12T09:56:33.405Z,6.60
2023-04-12T09:59:03.922Z,4.32
2023-04-12T10:01:36.015Z,7.05
2023-04-12T10:04:05.164Z,4.88
2023-04-12T10:06:34.249Z,3.78
2023-04-12T10:09:05.537Z,4.55
2023-04-12T10:11:34.614Z,4.60
2023-04-12T10:14:04.092Z,3.60
2023-04-12T10:16:34.594Z,3.35
2023-04-12T10:19:03.859Z,4.50
2023-04-12T10:21:32.033Z,3.15
2023-04-12T10:24:00.399Z,3.28
2023-04-12T10:26:29.644Z,3.42
2023-04-12T10:29:26.237Z,4.00
2023-04-12T10:31:54.590Z,3.03
2023-04-12T10:34:26.690Z,3.03
2023-04-12T10:36:56.066Z,2.85
2023-04-12T10:39:47.275Z,2.97
2023-04-12T10:42:27.772Z,3.10
2023-04-12T10:44:58.700Z,3.17
2023-04-12T10:48:01.636Z,2.58
2023-04-12T10:50:31.331Z,3.33
2023-04-12T10:53:27.312Z,3.03
2023-04-12T10:55:55.528Z,3.53
2023-04-12T10:58:58.996Z,3.22
2023-04-12T11:01:28.386Z,3.67
2023-04-12T11:04:14.362Z,4.00
2023-04-12T11:06:50.442Z,2.88
2023-04-12T11:09:19.626Z,2.75
2023-04-12T11:11:47.502Z,3.00
2023-04-12T11:14:18.928Z,2.63
2023-04-12T11:17:24.832Z,2.70
2023-04-12T11:19:58.419Z,2.22
2023-04-12T11:22:29.115Z,2.40
2023-04-12T11:24:58.653Z,1.63
2023-04-12T11:27:28.035Z,3.50
2023-04-12T11:29:59.001Z,2.00
2023-04-12T11:32:30.268Z,1.52
2023-04-12T11:34:59.152Z,1.88
2023-04-12T11:37:27.845Z,1.80
2023-04-12T11:39:58.359Z,2.13
2023-04-12T11:42:29.129Z,1.80
2023-04-12T11:45:04.028Z,2.47
2023-04-12T11:47:32.985Z,1.90
2023-04-12T11:50:00.825Z,2.78
2023-04-12T11:52:30.565Z,2.65
2023-04-12T11:55:01.317Z,1.42
2023-04-12T11:57:31.135Z,1.38
2023-04-12T12:00:00.899Z,1.48
2023-04-12T12:02:34.434Z,1.80
2023-04-12T12:05:05.096Z,1.65
2023-04-12T12:07:33.234Z,1.48
2023-04-12T12:10:02.147Z,2.13
2023-04-12T12:12:29.885Z,1.95
2023-04-12T12:15:02.898Z,2.03
2023-04-12T12:17:30.707Z,2.20
2023-04-12T12:19:59.374Z,1.65
2023-04-12T12:22:27.270Z,1.70
2023-04-12T12:24:57.781Z,2.30
2023-04-12T12:27:34.342Z,2.10
2023-04-12T12:30:04.839Z,1.80
2023-04-12T12:32:35.671Z,2.00
2023-04-12T12:35:04.189Z,2.30
2023-04-12T12:37:32.056Z,1.95
2023-04-12T12:40:11.279Z,1.77
2023-04-12T12:42:46.533Z,2.03
2023-04-12T12:45:16.123Z,1.73
2023-04-12T12:47:52.225Z,1.77
2023-04-12T12:50:24.101Z,2.25
2023-04-12T12:52:53.038Z,2.33
2023-04-12T12:55:22.221Z,2.20
2023-04-12T12:58:06.717Z,2.22
2023-04-12T13:00:37.463Z,2.08
2023-04-12T13:03:07.967Z,2.10
2023-04-12T13:05:35.877Z,2.53
2023-04-12T13:08:04.925Z,1.83
2023-04-12T13:10:32.929Z,2.33
2023-04-12T13:13:01.757Z,1.75
2023-04-12T13:15:30.110Z,2.03
2023-04-12T13:17:59.286Z,2.10
2023-04-12T13:20:27.761Z,2.10
2023-04-12T13:22:55.921Z,2.30
2023-04-12T13:25:23.811Z,1.60
2023-04-12T13:27:52.700Z,2.15
2023-04-12T13:30:22.244Z,4.88
2023-04-12T13:32:52.809Z,3.28
2023-04-12T13:35:22.666Z,1.80
2023-04-12T13:37:50.958Z,1.50
2023-04-12T13:40:18.775Z,1.63
2023-04-12T13:42:46.534Z,1.25
2023-04-12T13:45:14.450Z,1.02
2023-04-12T13:47:42.305Z,1.38
2023-04-12T13:50:11.096Z,1.52
2023-04-12T13:52:40.232Z,1.08
2023-04-12T13:55:09.261Z,0.98
2023-04-12T13:57:37.545Z,0.82
2023-04-12T14:00:06.466Z,1.48
2023-04-12T14:02:34.378Z,2.30
2023-04-12T14:05:02.420Z,1.23
2023-04-12T14:07:30.424Z,1.77
2023-04-12T14:09:59.548Z,1.65
2023-04-12T14:12:29.040Z,1.20
2023-04-12T14:14:56.883Z,1.90
2023-04-12T14:17:24.787Z,2.28
2023-04-12T14:19:52.566Z,1.08
2023-04-12T14:22:20.440Z,1.02
2023-04-12T14:24:48.185Z,1.35
2023-04-12T14:27:19.076Z,1.00
2023-04-12T14:29:57.000Z,1.10
2023-04-12T14:32:24.861Z,1.05
2023-04-12T14:34:52.741Z,0.60
2023-04-12T14:37:20.631Z,1.08
2023-04-12T14:39:48.360Z,0.93
2023-04-12T14:42:16.509Z,1.20
2023-04-12T14:44:46.954Z,1.58
2023-04-12T14:47:14.802Z,1.65
2023-04-12T14:49:42.591Z,0.90
2023-04-12T14:52:11.601Z,1.25
2023-04-12T14:54:39.331Z,1.50
2023-04-12T14:57:07.279Z,1.30
2023-04-12T14:59:35.121Z,1.00
2023-04-12T15:02:04.450Z,4.90
2023-04-12T15:04:32.628Z,1.55
2023-04-12T15:07:00.568Z,1.88
2023-04-12T15:09:29.396Z,1.67
2023-04-12T15:12:00.693Z,2.90
2023-04-12T15:14:29.173Z,1.35
2023-04-12T15:16:57.117Z,1.83
2023-04-12T15:19:27.281Z,1.45
2023-04-12T15:21:56.274Z,2.40
2023-04-12T15:24:24.771Z,1.00
2023-04-12T15:26:53.700Z,1.25
2023-04-12T15:29:25.458Z,1.50
2023-04-12T15:31:54.371Z,1.60
2023-04-12T15:34:23.610Z,1.10
2023-04-12T15:36:53.534Z,2.08
2023-04-12T15:39:21.661Z,1.40
2023-04-12T15:41:49.480Z,1.58
2023-04-12T15:44:25.674Z,1.63
2023-04-12T15:47:07.854Z,1.80
2023-04-12T15:49:39.299Z,1.58
2023-04-12T15:52:08.436Z,1.67
2023-04-12T15:54:43.372Z,1.30
2023-04-12T15:57:11.809Z,1.45
2023-04-12T15:59:40.786Z,1.00
2023-04-12T16:02:11.135Z,4.22
2023-04-12T16:04:39.540Z,1.60
2023-04-12T16:07:09.139Z,2.10
2023-04-12T16:09:39.608Z,1.50
2023-04-12T16:12:10.941Z,1.88
2023-04-12T16:14:39.405Z,1.65
2023-04-12T16:17:10.218Z,1.65
2023-04-12T16:19:37.943Z,1.38
2023-04-12T16:22:05.880Z,1.42
2023-04-12T16:24:35.002Z,2.15
2023-04-12T16:27:02.754Z,1.60
2023-04-12T16:29:37.144Z,1.42
2023-04-12T16:32:08.237Z,1.50
2023-04-12T16:34:38.133Z,1.65
2023-04-12T16:37:05.907Z,1.75
2023-04-12T16:39:59.539Z,2.00
2023-04-12T16:42:32.801Z,4.05
2023-04-12T16:45:02.815Z,1.95
2023-04-12T16:47:36.598Z,1.77
2023-04-12T16:52:32.921Z,2.30
2023-04-12T16:55:18.362Z,2.50
2023-04-12T16:57:48.619Z,2.17
2023-04-12T17:00:21.001Z,2.38
2023-04-12T17:02:51.995Z,1.65
2023-04-12T17:05:24.695Z,1.55
2023-04-12T17:08:03.756Z,2.92
2023-04-12T17:10:36.858Z,3.42
2023-04-12T17:13:11.531Z,1.85
2023-04-12T17:15:39.677Z,2.05
2023-04-12T17:18:13.173Z,1.95
2023-04-12T17:20:44.254Z,1.65
2023-04-12T17:23:13.450Z,1.50
2023-04-12T17:25:44.247Z,1.70
2023-04-12T17:28:19.915Z,1.90
2023-04-12T17:30:53.848Z,2.28
2023-04-12T17:33:21.710Z,1.50
2023-04-12T17:36:11.418Z,1.80
2023-04-12T17:38:43.196Z,1.48
2023-04-12T17:42:04.795Z,1.88
2023-04-12T17:44:35.031Z,1.92
2023-04-12T17:47:04.167Z,1.95
2023-04-12T17:49:31.925Z,2.15
2023-04-12T17:52:08.979Z,2.25
2023-04-12T17:54:58.425Z,2.28
2023-04-12T17:57:28.609Z,2.13
2023-04-12T17:59:58.360Z,1.60
2023-04-12T18:02:27.186Z,1.50
2023-04-12T18:04:55.574Z,2.60
2023-04-12T18:07:24.129Z,1.60
2023-04-12T18:09:53.108Z,2.28
2023-04-12T18:12:22.133Z,2.00
2023-04-12T18:14:50.373Z,2.65
2023-04-12T18:17:31.842Z,1.33
2023-04-12T18:20:02.016Z,1.80
2023-04-12T18:22:30.985Z,2.10
2023-04-12T18:25:06.377Z,2.33
2023-04-12T18:27:37.621Z,1.77
2023-04-12T18:30:07.581Z,2.05
2023-04-12T18:32:37.377Z,2.58
2023-04-12T18:35:10.852Z,2.22
2023-04-12T18:37:42.588Z,2.30
2023-04-12T18:40:12.238Z,1.70
2023-04-12T18:42:47.280Z,2.22
2023-04-12T18:45:15.109Z,3.20
2023-04-12T18:47:44.811Z,2.38
2023-04-12T18:50:19.655Z,2.08
2023-04-12T18:52:47.688Z,1.98
2023-04-12T18:55:15.854Z,2.33
2023-04-12T18:57:43.750Z,1.80
2023-04-12T19:00:16.004Z,2.15
2023-04-12T19:02:53.771Z,1.70
2023-04-12T19:05:25.139Z,1.90
2023-04-12T19:07:58.143Z,2.53
2023-04-12T19:10:30.843Z,1.97
2023-04-12T19:13:05.217Z,1.85
2023-04-12T19:15:35.712Z,2.22
2023-04-12T19:18:14.011Z,3.53
2023-04-12T19:20:41.950Z,2.22
2023-04-12T19:23:10.153Z,1.58
2023-04-12T19:25:37.903Z,1.88
2023-04-12T19:28:10.543Z,1.92
2023-04-12T19:30:46.264Z,2.05
2023-04-12T19:33:22.577Z,1.67
2023-04-12T19:36:07.324Z,1.55
2023-04-12T19:38:44.204Z,1.77
2023-04-12T19:41:14.172Z,1.85
2023-04-12T19:43:43.221Z,2.20
2023-04-12T19:46:11.751Z,1.38
2023-04-12T19:48:40.965Z,4.45
2023-04-12T19:51:08.932Z,1.92
2023-04-12T19:53:36.827Z,3.25
2023-04-12T19:56:05.886Z,1.88
2023-04-12T19:58:34.538Z,2.08
2023-04-12T20:01:03.007Z,1.65
2023-04-12T20:03:31.193Z,1.70
2023-04-12T20:06:04.375Z,1.92
2023-04-12T20:08:33.150Z,2.05
2023-04-12T20:11:02.509Z,2.15
2023-04-12T20:13:32.399Z,1.70
2023-04-12T20:19:16.436Z,1.83
2023-04-12T20:21:48.123Z,1.63
2023-04-12T20:24:16.182Z,2.20
2023-04-12T20:26:47.314Z,1.85
2023-04-12T20:29:15.991Z,1.48
2023-04-12T20:31:47.394Z,1.13
2023-04-12T20:34:17.661Z,2.20
2023-04-12T20:36:47.795Z,1.50
2023-04-12T20:39:15.531Z,1.65
2023-04-12T20:41:49.947Z,1.50
2023-04-12T20:44:17.935Z,2.25
2023-04-12T20:46:45.849Z,1.20
2023-04-12T20:49:14.639Z,1.30
2023-04-12T20:51:42.381Z,1.27
2023-04-12T20:54:11.638Z,1.50
2023-04-12T20:56:39.389Z,1.13
2023-04-12T20:59:07.889Z,1.48
2023-04-12T21:01:43.344Z,1.20
2023-04-12T21:04:16.003Z,2.03
2023-04-12T21:06:47.681Z,1.27
2023-04-12T21:09:26.670Z,1.75
2023-04-12T21:11:58.827Z,0.95
2023-04-12T21:14:26.592Z,1.25
2023-04-12T21:16:57.944Z,0.93
2023-04-12T21:19:25.847Z,2.20
2023-04-12T21:21:53.669Z,1.05
2023-04-12T21:28:56.890Z,1.33
2023-04-12T21:31:22.905Z,1.40
2023-04-12T21:33:51.919Z,1.10
2023-04-12T21:36:20.622Z,0.93
2023-04-12T21:38:49.147Z,1.05
2023-04-12T21:41:16.941Z,1.23
2023-04-12T21:43:50.814Z,1.20
2023-04-12T21:48:48.013Z,1.15
2023-04-12T21:51:15.827Z,1.45
2023-04-12T21:53:43.561Z,1.15
2023-04-12T21:56:11.631Z,1.30
2023-04-12T21:58:39.363Z,1.10
2023-04-12T22:01:09.407Z,1.20
2023-04-12T22:03:41.616Z,1.42
2023-04-12T22:06:11.729Z,1.00
2023-04-12T22:08:42.725Z,1.23
2023-04-12T22:11:11.832Z,1.10
2023-04-12T22:13:41.995Z,1.25
2023-04-12T22:16:13.560Z,1.52
2023-04-12T22:18:42.611Z,1.30
2023-04-12T22:21:12.142Z,1.00
2023-04-12T22:23:40.892Z,1.20
2023-04-12T22:26:09.250Z,1.08
2023-04-12T22:28:38.257Z,0.93
2023-04-12T22:31:06.526Z,0.98
2023-04-12T22:33:36.873Z,0.90
2023-04-12T22:36:08.662Z,1.13
2023-04-12T22:38:37.089Z,1.02
2023-04-12T22:41:07.743Z,1.00
2023-04-12T22:43:41.811Z,0.88
2023-04-12T22:46:15.651Z,0.80
2023-04-12T22:48:45.937Z,0.77
2023-04-12T22:51:14.084Z,0.85
2023-04-12T22:53:43.336Z,0.77
2023-04-12T22:56:11.350Z,1.20
2023-04-12T22:58:40.408Z,1.13
2023-04-12T23:01:10.792Z,0.90
2023-04-12T23:03:41.700Z,1.50
2023-04-12T23:06:12.703Z,1.15
2023-04-12T23:08:40.645Z,0.98
2023-04-12T23:11:08.489Z,1.42
2023-04-12T23:13:36.229Z,1.10
2023-04-12T23:16:05.009Z,1.02
2023-04-12T23:18:32.876Z,1.13
2023-04-12T23:21:01.674Z,1.00
2023-04-12T23:23:30.937Z,1.00
2023-04-12T23:26:20.214Z,1.35
2023-04-12T23:28:47.945Z,1.20
2023-04-12T23:31:15.980Z,0.88
2023-04-12T23:33:44.097Z,1.35
2023-04-12T23:36:12.711Z,0.93
2023-04-12T23:38:44.419Z,1.00
2023-04-12T23:41:12.676Z,0.90
2023-04-12T23:43:40.979Z,1.10
2023-04-12T23:46:08.775Z,1.15
2023-04-12T23:48:36.761Z,0.80
2023-04-12T23:51:04.869Z,1.10
2023-04-12T23:53:32.579Z,0.88
2023-04-12T23:56:01.718Z,1.27
2023-04-12T23:58:29.494Z,1.17
